createdAt,value
2023-02-25T00:00:31.942Z,23.70
2023-02-25T00:04:45.617Z,23.50
2023-02-25T00:08:58.071Z,22.40
2023-02-25T00:13:18.217Z,24.05
2023-02-25T00:17:30.948Z,22.73
2023-02-25T00:21:43.315Z,21.70
2023-02-25T00:26:05.924Z,21.02
2023-02-25T00:30:18.387Z,22.50
2023-02-25T00:34:31.875Z,22.52
2023-02-25T00:38:48.544Z,23.75
2023-02-25T00:43:01.472Z,23.20
2023-02-25T00:47:14.860Z,23.75
2023-02-25T00:51:30.754Z,24.00
2023-02-25T00:55:43.098Z,24.95
2023-02-25T00:59:55.919Z,24.42
2023-02-25T01:04:09.620Z,23.88
2023-02-25T01:08:23.480Z,23.65
2023-02-25T01:12:35.808Z,24.95
2023-02-25T01:16:49.422Z,22.95
2023-02-25T01:21:02.459Z,22.10
2023-02-25T01:25:17.692Z,22.80
2023-02-25T01:29:33.420Z,22.08
2023-02-25T01:33:46.820Z,21.33
2023-02-25T01:37:59.178Z,21.48
2023-02-25T01:42:16.735Z,21.30
2023-02-25T01:46:30.515Z,20.27
2023-02-25T01:50:50.130Z,21.77
2023-02-25T01:55:05.328Z,21.80
2023-02-25T01:59:21.256Z,21.50
2023-02-25T02:03:36.258Z,19.50
2023-02-25T02:07:48.768Z,18.77
2023-02-25T02:12:05.188Z,19.08
2023-02-25T02:16:42.720Z,17.65
2023-02-25T02:21:07.907Z,19.73
2023-02-25T02:25:37.710Z,21.73
2023-02-25T02:30:40.989Z,24.50
2023-02-25T02:35:17.967Z,23.73
2023-02-25T02:39:48.187Z,22.45
2023-02-25T02:44:28.771Z,23.38
2023-02-25T02:48:55.534Z,23.50
2023-02-25T02:53:14.071Z,22.60
2023-02-25T02:57:29.101Z,23.13
2023-02-25T03:01:55.494Z,22.75
2023-02-25T03:06:16.073Z,23.33
2023-02-25T03:10:28.809Z,22.75
2023-02-25T03:14:41.931Z,23.58
2023-02-25T03:19:25.047Z,24.42
2023-02-25T03:23:42.141Z,23.55
2023-02-25T03:27:57.713Z,24.65
2023-02-25T03:32:16.283Z,24.80
2023-02-25T03:36:37.689Z,25.02
2023-02-25T03:40:52.371Z,23.23
2023-02-25T03:45:08.633Z,21.45
2023-02-25T03:49:47.705Z,20.77
2023-02-25T03:54:00.442Z,18.17
2023-02-25T03:58:16.684Z,17.55
2023-02-25T04:02:33.424Z,15.25
2023-02-25T04:06:45.825Z,16.63
2023-02-25T04:10:59.436Z,16.08
2023-02-25T04:15:14.710Z,16.50
2023-02-25T04:19:27.101Z,16.13
2023-02-25T04:23:39.521Z,16.00
2023-02-25T04:27:52.078Z,14.65
2023-02-25T04:32:05.376Z,19.48
2023-02-25T04:36:30.307Z,19.70
2023-02-25T04:40:42.735Z,22.42
2023-02-25T04:44:55.105Z,20.95
2023-02-25T04:49:09.787Z,24.95
2023-02-25T04:53:22.083Z,25.08
2023-02-25T04:57:34.519Z,26.23
2023-02-25T05:01:46.985Z,26.60
2023-02-25T05:06:00.517Z,30.35
2023-02-25T05:10:15.340Z,30.33
2023-02-25T05:14:28.096Z,30.10
2023-02-25T05:18:44.301Z,26.55
2023-02-25T05:22:56.736Z,28.92
2023-02-25T05:27:09.567Z,28.10
2023-02-25T05:31:25.178Z,28.55
2023-02-25T05:35:40.886Z,29.92
2023-02-25T05:39:53.274Z,29.65
2023-02-25T05:44:05.861Z,29.33
2023-02-25T05:48:18.320Z,29.10
2023-02-25T05:52:30.813Z,28.33
2023-02-25T05:56:44.614Z,28.70
2023-02-25T06:00:56.993Z,29.75
2023-02-25T06:05:09.705Z,28.25
2023-02-25T06:09:22.926Z,29.55
2023-02-25T06:13:35.490Z,30.17
2023-02-25T06:17:47.917Z,28.95
2023-02-25T06:22:00.368Z,27.75
2023-02-25T06:26:14.539Z,26.25
2023-02-25T06:30:27.601Z,27.90
2023-02-25T06:34:40.285Z,27.60
2023-02-25T06:38:52.804Z,27.63
2023-02-25T06:43:07.852Z,26.75
2023-02-25T06:47:22.696Z,26.13
2023-02-25T06:51:35.175Z,25.75
2023-02-25T06:55:47.567Z,23.88
2023-02-25T07:00:02.087Z,24.25
2023-02-25T07:04:18.767Z,23.60
2023-02-25T07:08:31.760Z,24.30
2023-02-25T07:12:45.182Z,26.88
2023-02-25T07:16:57.604Z,25.52
2023-02-25T07:21:12.610Z,25.80
2023-02-25T07:25:25.081Z,28.98
2023-02-25T07:29:37.503Z,43.38
2023-02-25T07:33:50.019Z,36.03
2023-02-25T07:38:02.306Z,32.83
2023-02-25T07:42:14.812Z,35.60
2023-02-25T07:46:34.693Z,32.38
2023-02-25T07:50:47.125Z,32.35
2023-02-25T07:54:59.546Z,31.52
2023-02-25T07:59:11.942Z,30.35
2023-02-25T08:03:24.777Z,33.65
2023-02-25T08:07:37.173Z,35.53
2023-02-25T08:11:49.628Z,34.85
2023-02-25T08:16:09.205Z,33.95
2023-02-25T08:20:22.021Z,33.15
2023-02-25T08:24:34.430Z,31.08
2023-02-25T08:28:46.832Z,33.53
2023-02-25T08:32:59.434Z,32.22
2023-02-25T08:37:12.161Z,31.15
2023-02-25T08:41:27.168Z,31.83
2023-02-25T08:45:42.869Z,30.92
2023-02-25T08:49:55.218Z,33.17
2023-02-25T08:54:12.182Z,41.65
2023-02-25T08:58:25.497Z,41.63
2023-02-25T09:02:42.930Z,41.80
2023-02-25T09:06:55.505Z,45.22
2023-02-25T09:11:07.855Z,45.85
2023-02-25T09:15:22.113Z,48.90
2023-02-25T09:19:34.543Z,58.53
2023-02-25T09:23:47.689Z,62.92
2023-02-25T09:28:00.143Z,59.75
2023-02-25T09:32:19.117Z,63.25
2023-02-25T09:36:32.019Z,65.30
2023-02-25T09:40:48.985Z,63.92
2023-02-25T09:45:04.798Z,60.45
2023-02-25T09:49:40.474Z,59.35
2023-02-25T09:54:00.359Z,62.38
2023-02-25T10:02:26.235Z,57.33
2023-02-25T10:06:44.510Z,50.47
2023-02-25T10:11:08.013Z,52.22
2023-02-25T10:15:52.867Z,54.15
2023-02-25T10:20:35.173Z,57.08
2023-02-25T10:24:52.109Z,54.78
2023-02-25T10:29:13.090Z,52.78
2023-02-25T10:33:27.914Z,52.83
2023-02-25T10:37:40.206Z,55.88
2023-02-25T10:41:53.053Z,55.92
2023-02-25T10:46:13.557Z,55.72
2023-02-25T10:50:44.432Z,54.40
2023-02-25T10:54:57.706Z,49.22
2023-02-25T10:59:36.068Z,38.22
2023-02-25T11:04:00.860Z,38.97
2023-02-25T11:08:44.816Z,33.40
2023-02-25T11:12:58.379Z,33.83
2023-02-25T11:17:12.534Z,30.25
2023-02-25T11:21:35.416Z,27.42
2023-02-25T11:25:47.987Z,25.27
2023-02-25T11:30:08.592Z,24.23
2023-02-25T11:34:43.847Z,22.92
2023-02-25T11:39:22.017Z,22.52
2023-02-25T11:43:43.836Z,30.23
2023-02-25T11:47:58.316Z,26.40
2023-02-25T11:52:13.522Z,27.02
2023-02-25T11:56:34.508Z,24.60
2023-02-25T12:01:11.586Z,24.25
2023-02-25T12:05:44.693Z,23.05
2023-02-25T12:10:27.884Z,21.73
2023-02-25T12:15:11.110Z,21.38
2023-02-25T12:19:29.246Z,22.30
2023-02-25T12:24:16.188Z,22.70
2023-02-25T12:28:41.900Z,25.73
2023-02-25T12:33:12.315Z,28.25
2023-02-25T12:37:41.165Z,27.42
2023-02-25T12:42:05.566Z,27.58
2023-02-25T12:46:50.346Z,34.85
2023-02-25T12:51:48.049Z,33.25
2023-02-25T12:56:37.245Z,31.80
2023-02-25T13:01:13.153Z,31.27
2023-02-25T13:05:49.918Z,29.00
2023-02-25T13:10:45.074Z,27.10
2023-02-25T13:15:09.135Z,24.88
2023-02-25T13:19:47.369Z,25.73
2023-02-25T13:24:30.742Z,21.50
2023-02-25T13:29:12.168Z,18.48
2023-02-25T13:33:44.195Z,19.00
2023-02-25T13:37:59.460Z,18.23
2023-02-25T13:42:30.257Z,19.90
2023-02-25T13:47:16.300Z,19.95
2023-02-25T13:51:32.393Z,18.95
2023-02-25T13:56:22.939Z,17.92
2023-02-25T14:00:49.080Z,17.95
2023-02-25T14:05:38.872Z,17.83
2023-02-25T14:10:04.205Z,20.85
2023-02-25T14:14:41.012Z,22.05
2023-02-25T14:19:20.646Z,27.30
2023-02-25T14:23:33.014Z,23.83
2023-02-25T14:28:13.492Z,24.77
2023-02-25T14:32:35.604Z,25.50
2023-02-25T14:37:21.531Z,23.83
2023-02-25T14:41:56.026Z,25.42
2023-02-25T14:46:37.630Z,22.73
2023-02-25T14:51:20.045Z,22.65
2023-02-25T14:55:44.633Z,22.17
2023-02-25T15:00:27.824Z,21.98
2023-02-25T15:04:47.765Z,23.10
2023-02-25T15:09:38.506Z,23.52
2023-02-25T15:14:33.419Z,24.73
2023-02-25T15:18:58.555Z,23.05
2023-02-25T15:23:16.847Z,25.10
2023-02-25T15:27:38.347Z,37.17
2023-02-25T15:32:12.272Z,29.38
2023-02-25T15:36:41.937Z,26.00
2023-02-25T15:40:55.771Z,27.02
2023-02-25T15:45:29.903Z,29.25
2023-02-25T15:49:47.594Z,31.30
2023-02-25T15:54:00.421Z,31.75
2023-02-25T15:58:25.051Z,28.80
2023-02-25T16:02:41.747Z,30.15
2023-02-25T16:06:55.189Z,35.65
2023-02-25T16:11:21.306Z,34.60
2023-02-25T16:15:37.472Z,37.45
2023-02-25T16:19:56.120Z,38.90
2023-02-25T16:24:10.854Z,35.22
2023-02-25T16:29:02.120Z,41.60
2023-02-25T16:37:51.463Z,36.78
2023-02-25T16:42:12.775Z,40.42
2023-02-25T16:46:33.102Z,40.67
2023-02-25T16:50:51.216Z,42.40
2023-02-25T16:55:11.441Z,38.58
2023-02-25T16:59:25.070Z,43.10
2023-02-25T17:03:48.839Z,49.40
2023-02-25T17:08:06.093Z,54.17
2023-02-25T17:12:28.642Z,63.08
2023-02-25T17:16:43.861Z,66.00
2023-02-25T17:21:16.415Z,59.92
2023-02-25T17:25:37.663Z,59.08
2023-02-25T17:29:50.712Z,61.63
2023-02-25T17:34:04.429Z,59.38
2023-02-25T17:38:20.664Z,57.63
2023-02-25T17:42:36.052Z,59.83
2023-02-25T17:46:50.785Z,58.90
2023-02-25T17:51:08.579Z,81.00
2023-02-25T17:55:35.297Z,73.80
2023-02-25T18:00:30.561Z,88.78
2023-02-25T18:04:43.085Z,91.22
2023-02-25T18:08:55.887Z,89.85
2023-02-25T18:13:20.288Z,88.70
2023-02-25T18:17:35.710Z,88.68
2023-02-25T18:21:48.163Z,90.63
2023-02-25T18:26:17.895Z,90.43
2023-02-25T18:30:31.881Z,87.95
2023-02-25T18:34:47.045Z,92.28
2023-02-25T18:39:04.380Z,91.95
2023-02-25T18:43:19.104Z,86.57
2023-02-25T18:47:31.396Z,90.00
2023-02-25T18:51:43.908Z,88.88
2023-02-25T18:55:57.778Z,52.83
2023-02-25T19:00:11.077Z,51.53
2023-02-25T19:04:23.488Z,29.52
2023-02-25T19:08:35.970Z,16.63
2023-02-25T19:12:50.975Z,10.63
2023-02-25T19:17:03.843Z,9.88
2023-02-25T19:21:21.651Z,7.80
2023-02-25T19:25:36.404Z,7.00
2023-02-25T19:29:51.236Z,6.93
2023-02-25T19:34:03.739Z,6.28
2023-02-25T19:38:19.003Z,4.80
2023-02-25T19:42:31.326Z,5.93
2023-02-25T19:46:44.612Z,5.10
2023-02-25T19:50:57.059Z,6.30
2023-02-25T19:55:11.781Z,5.47
2023-02-25T19:59:24.168Z,5.40
2023-02-25T20:03:36.812Z,4.30
2023-02-25T20:07:49.268Z,4.70
2023-02-25T20:12:02.678Z,4.00
2023-02-25T20:16:15.159Z,4.60
2023-02-25T20:20:29.689Z,4.55
2023-02-25T20:24:42.249Z,4.35
2023-02-25T20:28:55.501Z,4.75
2023-02-25T20:33:08.109Z,4.95
2023-02-25T20:37:24.778Z,4.50
2023-02-25T20:41:37.361Z,4.15
2023-02-25T20:45:49.880Z,4.30
2023-02-25T20:50:04.668Z,4.72
2023-02-25T20:54:19.542Z,4.38
2023-02-25T20:58:31.924Z,4.57
2023-02-25T21:02:44.320Z,6.80
2023-02-25T21:06:56.824Z,4.30
2023-02-25T21:11:09.313Z,4.00
2023-02-25T21:15:21.860Z,4.28
2023-02-25T21:19:34.157Z,3.70
2023-02-25T21:23:47.344Z,3.75
2023-02-25T21:27:59.746Z,3.95
2023-02-25T21:32:12.299Z,4.88
2023-02-25T21:36:24.873Z,4.22
2023-02-25T21:40:37.830Z,4.13
2023-02-25T21:44:50.270Z,3.72
2023-02-25T21:49:02.829Z,4.00
2023-02-25T21:53:15.791Z,3.78
2023-02-25T21:57:29.203Z,3.85
2023-02-25T22:01:42.554Z,4.10
2023-02-25T22:05:55.138Z,4.20
2023-02-25T22:10:09.142Z,3.20
2023-02-25T22:14:21.665Z,3.67
2023-02-25T22:18:35.492Z,3.83
2023-02-25T22:22:48.283Z,4.10
2023-02-25T22:27:01.457Z,3.60
2023-02-25T22:31:16.873Z,3.85
2023-02-25T22:35:30.681Z,2.95
2023-02-25T22:39:43.505Z,3.33
2023-02-25T22:43:57.693Z,3.10
2023-02-25T22:48:10.149Z,3.08
2023-02-25T22:52:22.642Z,3.15
2023-02-25T22:56:35.068Z,3.00
2023-02-25T23:00:47.639Z,3.53
2023-02-25T23:05:00.880Z,3.58
2023-02-25T23:09:14.733Z,2.90
2023-02-25T23:13:27.229Z,3.00
2023-02-25T23:17:39.548Z,3.53
2023-02-25T23:21:52.673Z,2.60
2023-02-25T23:26:07.736Z,3.22
2023-02-25T23:30:20.181Z,2.80
2023-02-25T23:34:32.843Z,3.28
2023-02-25T23:38:45.170Z,3.08
2023-02-25T23:42:57.516Z,8.45
2023-02-25T23:47:12.540Z,2.80
2023-02-25T23:51:25.740Z,2.63
2023-02-25T23:55:38.308Z,2.45
2023-02-25T23:59:50.675Z,2.65
